createdAt,value
2023-03-05T00:02:07.484Z,3.47
2023-03-05T00:04:34.464Z,3.43
2023-03-05T00:07:01.374Z,4.10
2023-03-05T00:09:28.209Z,3.90
2023-03-05T00:11:55.095Z,4.00
2023-03-05T00:14:21.963Z,3.90
2023-03-05T00:16:48.896Z,3.33
2023-03-05T00:19:15.881Z,3.77
2023-03-05T00:21:43.071Z,3.70
2023-03-05T00:24:14.219Z,3.50
2023-03-05T00:26:41.401Z,3.23
2023-03-05T00:29:09.548Z,3.53
2023-03-05T00:31:37.575Z,3.23
2023-03-05T00:34:08.141Z,2.87
2023-03-05T00:36:38.920Z,3.20
2023-03-05T00:39:05.776Z,2.87
2023-03-05T00:41:32.954Z,2.93
2023-03-05T00:44:00.041Z,3.30
2023-03-05T00:46:27.670Z,2.83
2023-03-05T00:48:55.852Z,2.47
2023-03-05T00:51:24.228Z,3.00
2023-03-05T00:53:51.768Z,2.60
2023-03-05T00:56:18.847Z,2.90
2023-03-05T00:58:45.706Z,2.97
2023-03-05T01:01:12.542Z,2.80
2023-03-05T01:03:39.492Z,2.77
2023-03-05T01:06:12.634Z,2.67
2023-03-05T01:08:40.188Z,2.83
2023-03-05T01:11:07.608Z,3.00
2023-03-05T01:13:34.591Z,2.97
2023-03-05T01:16:02.447Z,2.50
2023-03-05T01:18:29.695Z,3.00
2023-03-05T01:20:56.686Z,3.47
2023-03-05T01:23:23.615Z,3.10
2023-03-05T01:25:55.521Z,4.07
2023-03-05T01:28:22.967Z,3.20
2023-03-05T01:30:49.832Z,3.63
2023-03-05T01:33:16.766Z,4.20
2023-03-05T01:35:46.812Z,4.90
2023-03-05T01:38:13.791Z,4.93
2023-03-05T01:40:42.000Z,4.87
2023-03-05T01:43:11.951Z,4.87
2023-03-05T01:45:59.956Z,4.70
2023-03-05T01:48:27.199Z,4.80
2023-03-05T01:50:54.366Z,5.60
2023-03-05T01:53:21.274Z,4.77
2023-03-05T01:55:48.146Z,6.80
2023-03-05T01:58:15.088Z,6.07
2023-03-05T02:00:46.158Z,6.07
2023-03-05T02:03:14.449Z,4.93
2023-03-05T02:08:28.857Z,5.30
2023-03-05T02:10:56.771Z,4.30
2023-03-05T02:13:31.796Z,5.07
2023-03-05T02:16:01.157Z,4.10
2023-03-05T02:18:28.155Z,4.93
2023-03-05T02:20:58.048Z,5.27
2023-03-05T02:23:32.966Z,4.93
2023-03-05T02:26:00.212Z,5.40
2023-03-05T02:28:40.109Z,5.30
2023-03-05T02:31:14.318Z,5.33
2023-03-05T02:33:41.582Z,5.87
2023-03-05T02:36:08.843Z,5.83
2023-03-05T02:38:35.670Z,5.33
2023-03-05T02:41:02.529Z,5.87
2023-03-05T02:43:29.760Z,4.80
2023-03-05T02:45:56.668Z,4.27
2023-03-05T02:48:23.639Z,4.53
2023-03-05T02:50:51.038Z,4.77
2023-03-05T02:53:17.866Z,4.90
2023-03-05T02:55:47.943Z,4.97
2023-03-05T02:58:14.979Z,4.37
2023-03-05T03:00:42.240Z,4.60
2023-03-05T03:03:09.416Z,4.30
2023-03-05T03:05:37.212Z,4.57
2023-03-05T03:08:04.395Z,4.50
2023-03-05T03:10:31.496Z,4.13
2023-03-05T03:12:58.321Z,4.57
2023-03-05T03:15:25.252Z,4.33
2023-03-05T03:17:52.180Z,4.83
2023-03-05T03:20:20.655Z,4.20
2023-03-05T03:22:47.675Z,2.83
2023-03-05T03:25:16.815Z,2.83
2023-03-05T03:27:43.627Z,2.60
2023-03-05T03:30:11.900Z,2.50
2023-03-05T03:32:38.791Z,3.13
2023-03-05T03:35:07.132Z,3.27
2023-03-05T03:37:34.087Z,3.33
2023-03-05T03:40:00.974Z,3.73
2023-03-05T03:42:27.885Z,3.07
2023-03-05T03:44:54.737Z,3.30
2023-03-05T03:47:21.576Z,4.00
2023-03-05T03:49:48.391Z,3.67
2023-03-05T03:52:15.293Z,3.93
2023-03-05T03:54:42.252Z,3.57
2023-03-05T03:57:09.762Z,3.73
2023-03-05T03:59:36.585Z,3.97
2023-03-05T04:02:03.629Z,3.90
2023-03-05T04:04:30.562Z,3.93
2023-03-05T04:06:57.643Z,4.07
2023-03-05T04:09:24.528Z,3.70
2023-03-05T04:11:51.397Z,4.03
2023-03-05T04:14:18.275Z,2.60
2023-03-05T04:16:45.072Z,3.37
2023-03-05T04:19:11.946Z,3.07
2023-03-05T04:21:38.780Z,3.20
2023-03-05T04:24:06.336Z,3.07
2023-03-05T04:26:33.157Z,3.23
2023-03-05T04:28:59.978Z,2.80
2023-03-05T04:31:26.842Z,4.40
2023-03-05T04:33:53.705Z,5.93
2023-03-05T04:36:20.649Z,4.80
2023-03-05T04:38:47.505Z,5.40
2023-03-05T04:41:14.328Z,6.03
2023-03-05T04:43:41.171Z,5.47
2023-03-05T04:46:08.167Z,5.50
2023-03-05T04:48:35.076Z,5.10
2023-03-05T04:51:01.957Z,5.10
2023-03-05T04:53:28.834Z,4.77
2023-03-05T04:55:56.373Z,4.53
2023-03-05T04:58:23.976Z,4.20
2023-03-05T05:00:51.331Z,4.13
2023-03-05T05:03:18.443Z,3.33
2023-03-05T05:05:45.382Z,3.83
2023-03-05T05:08:12.275Z,3.20
2023-03-05T05:10:40.216Z,3.00
2023-03-05T05:13:07.469Z,3.17
2023-03-05T05:15:34.362Z,3.10
2023-03-05T05:18:01.150Z,3.10
2023-03-05T05:20:28.054Z,3.00
2023-03-05T05:22:54.864Z,2.90
2023-03-05T05:25:21.672Z,2.53
2023-03-05T05:27:48.561Z,2.30
2023-03-05T05:30:15.608Z,2.10
2023-03-05T05:32:42.583Z,1.73
2023-03-05T05:35:10.674Z,1.90
2023-03-05T05:37:37.482Z,2.07
2023-03-05T05:40:05.805Z,1.53
2023-03-05T05:42:32.680Z,1.70
2023-03-05T05:44:59.805Z,1.40
2023-03-05T05:47:26.654Z,1.47
2023-03-05T05:49:53.542Z,1.53
2023-03-05T05:52:20.378Z,1.70
2023-03-05T05:54:47.490Z,2.20
2023-03-05T05:57:14.670Z,2.43
2023-03-05T05:59:42.149Z,2.20
2023-03-05T06:02:11.262Z,2.50
2023-03-05T06:04:38.768Z,2.50
2023-03-05T06:07:06.180Z,2.70
2023-03-05T06:09:35.677Z,2.70
2023-03-05T06:12:02.960Z,3.13
2023-03-05T06:14:29.793Z,3.00
2023-03-05T06:16:56.748Z,3.30
2023-03-05T06:19:23.611Z,3.43
2023-03-05T06:21:50.417Z,3.37
2023-03-05T06:24:19.377Z,3.50
2023-03-05T06:26:46.937Z,5.50
2023-03-05T06:29:14.057Z,7.37
2023-03-05T06:31:41.043Z,9.30
2023-03-05T06:34:08.064Z,7.43
2023-03-05T06:36:34.883Z,5.47
2023-03-05T06:39:01.713Z,4.27
2023-03-05T06:41:30.683Z,5.23
2023-03-05T06:43:59.140Z,5.07
2023-03-05T06:46:28.966Z,4.40
2023-03-05T06:49:04.520Z,5.20
2023-03-05T06:51:34.159Z,5.07
2023-03-05T06:54:03.456Z,5.83
2023-03-05T06:56:30.503Z,5.53
2023-03-05T06:58:57.543Z,5.00
2023-03-05T07:01:24.573Z,5.40
2023-03-05T07:03:53.269Z,6.10
2023-03-05T07:06:21.114Z,5.97
2023-03-05T07:08:48.342Z,6.50
2023-03-05T07:11:17.902Z,6.57
2023-03-05T07:13:47.717Z,7.00
2023-03-05T07:16:17.978Z,6.80
2023-03-05T07:18:45.579Z,6.93
2023-03-05T07:21:17.625Z,6.73
2023-03-05T07:23:44.418Z,6.53
2023-03-05T07:26:11.861Z,6.57
2023-03-05T07:28:39.168Z,6.27
2023-03-05T07:31:08.649Z,6.73
2023-03-05T07:33:37.283Z,6.23
2023-03-05T07:36:12.368Z,6.33
2023-03-05T07:38:39.350Z,5.70
2023-03-05T07:41:19.742Z,6.50
2023-03-05T07:43:48.834Z,7.10
2023-03-05T07:46:18.025Z,6.30
2023-03-05T07:48:45.471Z,5.47
2023-03-05T07:51:18.112Z,5.43
2023-03-05T07:53:46.327Z,5.00
2023-03-05T07:56:13.626Z,5.53
2023-03-05T07:58:40.500Z,4.50
2023-03-05T08:01:16.739Z,4.70
2023-03-05T08:03:44.370Z,3.97
2023-03-05T08:06:12.494Z,3.57
2023-03-05T08:08:39.795Z,3.00
2023-03-05T08:11:09.087Z,3.87
2023-03-05T08:13:36.496Z,2.80
2023-03-05T08:16:13.096Z,3.33
2023-03-05T08:18:40.081Z,2.70
2023-03-05T08:21:07.468Z,2.60
2023-03-05T08:23:35.075Z,2.53
2023-03-05T08:26:02.176Z,2.53
2023-03-05T08:28:28.988Z,1.83
2023-03-05T08:30:55.860Z,1.90
2023-03-05T08:33:22.899Z,1.80
2023-03-05T08:35:49.805Z,2.63
2023-03-05T08:38:16.686Z,1.60
2023-03-05T08:40:43.702Z,1.73
2023-03-05T08:43:10.612Z,1.63
2023-03-05T08:45:39.465Z,1.87
2023-03-05T08:48:06.606Z,2.23
2023-03-05T08:50:33.446Z,2.13
2023-03-05T08:53:00.257Z,2.40
2023-03-05T08:55:27.141Z,2.90
2023-03-05T08:57:54.002Z,2.80
2023-03-05T09:00:21.158Z,2.43
2023-03-05T09:02:48.260Z,2.33
2023-03-05T09:05:15.671Z,2.13
2023-03-05T09:07:43.028Z,2.53
2023-03-05T09:10:12.693Z,2.00
2023-03-05T09:12:40.097Z,2.17
2023-03-05T09:15:09.126Z,2.00
2023-03-05T09:17:37.146Z,1.70
2023-03-05T09:20:06.002Z,2.23
2023-03-05T09:22:32.898Z,2.23
2023-03-05T09:24:59.744Z,2.30
2023-03-05T09:27:26.638Z,2.33
2023-03-05T09:29:53.453Z,2.80
2023-03-05T09:32:20.309Z,2.23
2023-03-05T09:34:47.236Z,2.67
2023-03-05T09:37:14.128Z,2.90
2023-03-05T09:39:40.987Z,2.60
2023-03-05T09:42:29.059Z,2.60
2023-03-05T09:45:32.518Z,2.50
2023-03-05T09:48:20.600Z,2.47
2023-03-05T09:51:05.586Z,2.93
2023-03-05T09:53:56.331Z,2.60
2023-03-05T09:56:46.036Z,2.83
2023-03-05T09:59:36.075Z,2.40
2023-03-05T10:02:16.555Z,3.10
2023-03-05T10:04:52.791Z,2.50
2023-03-05T10:07:32.601Z,2.50
2023-03-05T10:10:24.758Z,2.77
2023-03-05T10:12:55.588Z,2.67
2023-03-05T10:15:51.073Z,2.90
2023-03-05T10:18:30.043Z,2.90
2023-03-05T10:21:24.480Z,2.80
2023-03-05T10:24:11.727Z,3.00
2023-03-05T10:26:50.810Z,3.00
2023-03-05T10:29:38.966Z,2.37
2023-03-05T10:32:36.837Z,2.90
2023-03-05T10:35:22.267Z,2.60
2023-03-05T10:38:14.378Z,2.90
2023-03-05T10:40:46.761Z,2.80
2023-03-05T10:43:31.126Z,2.00
2023-03-05T10:45:59.987Z,2.50
2023-03-05T10:48:59.817Z,2.17
2023-03-05T10:51:41.324Z,2.50
2023-03-05T10:54:33.777Z,1.90
2023-03-05T10:57:18.327Z,2.47
2023-03-05T11:00:13.320Z,2.50
2023-03-05T11:02:53.650Z,2.77
2023-03-05T11:05:39.188Z,2.60
2023-03-05T11:08:38.765Z,2.83
2023-03-05T11:11:08.374Z,2.90
2023-03-05T11:13:38.390Z,3.00
2023-03-05T11:16:07.583Z,2.93
2023-03-05T11:18:35.370Z,3.20
2023-03-05T11:21:19.875Z,2.87
2023-03-05T11:24:17.070Z,2.90
2023-03-05T11:26:56.619Z,3.40
2023-03-05T11:29:27.528Z,3.33
2023-03-05T11:31:54.974Z,3.67
2023-03-05T11:34:26.069Z,3.30
2023-03-05T11:36:53.292Z,3.40
2023-03-05T11:39:22.727Z,3.10
2023-03-05T11:41:49.959Z,3.60
2023-03-05T11:44:35.059Z,3.67
2023-03-05T11:47:05.285Z,4.00
2023-03-05T11:49:35.211Z,3.73
2023-03-05T11:52:11.500Z,3.80
2023-03-05T11:54:48.238Z,3.33
2023-03-05T11:57:16.978Z,3.40
2023-03-05T11:59:44.606Z,3.47
2023-03-05T12:02:25.786Z,3.60
2023-03-05T12:04:53.105Z,4.07
2023-03-05T12:07:28.462Z,3.80
2023-03-05T12:09:55.933Z,3.93
2023-03-05T12:12:30.991Z,3.27
2023-03-05T12:15:18.894Z,3.23
2023-03-05T12:18:03.653Z,3.90
2023-03-05T12:20:48.869Z,3.90
2023-03-05T12:23:21.340Z,4.37
2023-03-05T12:25:52.331Z,3.87
2023-03-05T12:28:31.579Z,4.43
2023-03-05T12:31:38.671Z,3.83
2023-03-05T12:34:33.830Z,3.70
2023-03-05T12:37:00.786Z,3.37
2023-03-05T12:39:47.757Z,3.90
2023-03-05T12:42:29.625Z,4.57
2023-03-05T12:45:11.867Z,5.43
2023-03-05T12:47:43.521Z,5.13
2023-03-05T12:50:28.915Z,4.20
2023-03-05T12:52:58.665Z,4.90
2023-03-05T12:55:57.236Z,5.30
2023-03-05T12:58:49.640Z,4.77
2023-03-05T13:01:42.047Z,3.67
2023-03-05T13:04:17.386Z,3.40
2023-03-05T13:06:44.636Z,2.77
2023-03-05T13:09:23.167Z,2.73
2023-03-05T13:11:52.586Z,2.47
2023-03-05T13:14:34.500Z,2.60
2023-03-05T13:17:02.191Z,2.30
2023-03-05T13:19:32.915Z,2.70
2023-03-05T13:22:02.486Z,2.10
2023-03-05T13:24:30.144Z,2.63
2023-03-05T13:26:57.204Z,2.17
2023-03-05T13:29:30.906Z,2.37
2023-03-05T13:32:01.167Z,1.97
2023-03-05T13:34:44.531Z,1.70
2023-03-05T13:37:20.393Z,2.10
2023-03-05T13:39:59.804Z,1.60
2023-03-05T13:42:36.237Z,1.63
2023-03-05T13:45:27.621Z,1.90
2023-03-05T13:48:03.853Z,3.10
2023-03-05T13:50:35.061Z,3.87
2023-03-05T13:53:31.700Z,4.20
2023-03-05T13:56:01.736Z,3.50
2023-03-05T13:58:55.066Z,4.13
2023-03-05T14:01:46.391Z,3.20
2023-03-05T14:04:13.596Z,4.30
2023-03-05T14:07:04.205Z,4.47
2023-03-05T14:09:47.641Z,3.50
2023-03-05T14:12:32.923Z,2.67
2023-03-05T14:15:02.412Z,2.17
2023-03-05T14:17:38.234Z,2.20
2023-03-05T14:20:14.795Z,1.97
2023-03-05T14:22:48.586Z,2.40
2023-03-05T14:25:34.110Z,2.40
2023-03-05T14:28:21.621Z,2.90
2023-03-05T14:30:51.737Z,3.37
2023-03-05T14:33:29.640Z,3.03
2023-03-05T14:35:58.662Z,3.00
2023-03-05T14:38:31.882Z,3.70
2023-03-05T14:40:58.718Z,3.33
2023-03-05T14:43:25.539Z,3.30
2023-03-05T14:45:52.464Z,3.20
2023-03-05T14:48:19.388Z,2.73
2023-03-05T14:50:52.811Z,3.23
2023-03-05T14:53:40.812Z,3.83
2023-03-05T14:56:23.214Z,3.40
2023-03-05T14:58:50.445Z,3.40
2023-03-05T15:01:17.636Z,3.57
2023-03-05T15:03:45.389Z,2.97
2023-03-05T15:06:29.008Z,3.27
2023-03-05T15:08:56.390Z,3.70
2023-03-05T15:11:23.750Z,3.60
2023-03-05T15:13:50.806Z,3.03
2023-03-05T15:16:19.198Z,3.30
2023-03-05T15:18:46.747Z,3.63
2023-03-05T15:21:14.052Z,4.10
2023-03-05T15:23:41.574Z,3.70
2023-03-05T15:26:12.417Z,3.60
2023-03-05T15:28:40.070Z,3.40
2023-03-05T15:31:07.805Z,3.30
2023-03-05T15:33:35.187Z,3.87
2023-03-05T15:36:02.211Z,3.47
2023-03-05T15:38:29.500Z,3.53
2023-03-05T15:40:56.838Z,3.50
2023-03-05T15:43:25.025Z,3.90
2023-03-05T15:45:54.261Z,3.40
2023-03-05T15:48:21.516Z,3.57
2023-03-05T15:50:49.091Z,3.63
2023-03-05T15:53:16.878Z,3.57
2023-03-05T15:55:46.262Z,3.90
2023-03-05T15:58:17.717Z,3.90
2023-03-05T16:00:45.966Z,4.47
2023-03-05T16:03:13.231Z,3.97
2023-03-05T16:05:40.437Z,3.50
2023-03-05T16:08:08.307Z,4.20
2023-03-05T16:10:36.759Z,4.20
2023-03-05T16:13:10.765Z,4.50
2023-03-05T16:15:40.087Z,4.70
2023-03-05T16:18:11.506Z,4.20
2023-03-05T16:20:38.569Z,4.10
2023-03-05T16:23:06.104Z,4.47
2023-03-05T16:25:33.265Z,4.83
2023-03-05T16:28:00.609Z,5.57
2023-03-05T16:30:27.534Z,4.97
2023-03-05T16:32:54.389Z,4.47
2023-03-05T16:35:21.886Z,4.10
2023-03-05T16:37:48.805Z,3.97
2023-03-05T16:40:15.766Z,4.00
2023-03-05T16:42:43.029Z,4.17
2023-03-05T16:45:11.525Z,3.70
2023-03-05T16:47:38.868Z,3.97
2023-03-05T16:50:06.997Z,4.33
2023-03-05T16:52:34.002Z,4.80
2023-03-05T16:55:01.052Z,17.37
2023-03-05T16:57:29.225Z,11.37
2023-03-05T16:59:56.847Z,9.83
2023-03-05T17:02:24.164Z,8.03
2023-03-05T17:04:51.129Z,7.23
2023-03-05T17:07:18.722Z,6.03
2023-03-05T17:09:47.997Z,6.40
2023-03-05T17:12:14.937Z,4.83
2023-03-05T17:14:42.002Z,4.53
2023-03-05T17:17:08.928Z,4.17
2023-03-05T17:19:35.874Z,4.60
2023-03-05T17:22:04.837Z,4.57
2023-03-05T17:24:33.034Z,5.40
2023-03-05T17:27:00.674Z,4.97
2023-03-05T17:29:27.812Z,5.17
2023-03-05T17:31:54.739Z,6.87
2023-03-05T17:34:33.243Z,7.37
2023-03-05T17:37:01.022Z,11.67
2023-03-05T17:39:27.902Z,7.80
2023-03-05T17:41:54.821Z,7.70
2023-03-05T17:44:21.657Z,5.77
2023-03-05T17:46:48.582Z,5.60
2023-03-05T17:49:16.105Z,5.10
2023-03-05T17:51:43.189Z,5.20
2023-03-05T17:54:10.045Z,6.10
2023-03-05T17:56:36.967Z,5.13
2023-03-05T17:59:04.170Z,5.87
2023-03-05T18:01:34.547Z,5.90
2023-03-05T18:04:01.960Z,5.93
2023-03-05T18:06:29.371Z,5.77
2023-03-05T18:08:56.277Z,5.50
2023-03-05T18:11:23.308Z,5.90
2023-03-05T18:13:50.515Z,6.63
2023-03-05T18:16:18.281Z,6.23
2023-03-05T18:18:45.461Z,6.40
2023-03-05T18:21:12.805Z,6.30
2023-03-05T18:23:39.898Z,6.27
2023-03-05T18:26:06.776Z,75.70
2023-03-05T18:28:33.758Z,25.10
2023-03-05T18:31:01.638Z,17.40
2023-03-05T18:33:28.900Z,13.90
2023-03-05T18:35:57.586Z,10.70
2023-03-05T18:38:29.897Z,10.03
2023-03-05T18:40:57.457Z,11.10
2023-03-05T18:43:24.905Z,11.87
2023-03-05T18:45:54.812Z,8.83
2023-03-05T18:48:22.778Z,9.07
2023-03-05T18:50:51.521Z,9.60
2023-03-05T18:53:18.855Z,8.13
2023-03-05T18:55:45.926Z,9.67
2023-03-05T18:58:17.568Z,10.83
2023-03-05T19:00:47.042Z,11.77
2023-03-05T19:03:15.319Z,9.93
2023-03-05T19:05:42.581Z,9.93
2023-03-05T19:08:09.936Z,10.13
2023-03-05T19:10:37.034Z,9.80
2023-03-05T19:13:37.621Z,8.93
2023-03-05T19:16:27.591Z,7.93
2023-03-05T19:19:15.497Z,7.33
2023-03-05T19:21:48.782Z,7.20
2023-03-05T19:24:16.581Z,8.30
2023-03-05T19:26:44.252Z,7.87
2023-03-05T19:29:11.875Z,10.63
2023-03-05T19:31:40.166Z,12.37
2023-03-05T19:34:07.459Z,18.17
2023-03-05T19:36:35.397Z,20.57
2023-03-05T19:39:06.352Z,20.07
2023-03-05T19:41:33.706Z,25.03
2023-03-05T19:44:00.685Z,26.87
2023-03-05T19:46:28.117Z,23.70
2023-03-05T19:48:55.532Z,24.27
2023-03-05T19:51:24.840Z,23.73
2023-03-05T19:53:52.660Z,23.33
2023-03-05T19:56:19.971Z,22.23
2023-03-05T19:58:48.960Z,20.53
2023-03-05T20:01:23.611Z,17.13
2023-03-05T20:03:52.988Z,15.60
2023-03-05T20:06:20.570Z,13.07
2023-03-05T20:08:48.066Z,15.80
2023-03-05T20:11:16.635Z,15.13
2023-03-05T20:13:44.232Z,14.00
2023-03-05T20:16:32.583Z,16.20
2023-03-05T20:19:00.041Z,18.33
2023-03-05T20:21:29.953Z,15.40
2023-03-05T20:23:59.608Z,15.38
2023-03-05T20:26:27.357Z,15.00
2023-03-05T20:28:55.488Z,11.90
2023-03-05T20:31:25.090Z,11.37
2023-03-05T20:33:52.092Z,10.30
2023-03-05T20:36:19.160Z,8.50
2023-03-05T20:38:46.867Z,8.77
2023-03-05T20:41:16.785Z,8.97
2023-03-05T20:43:46.394Z,8.50
2023-03-05T20:46:25.307Z,8.20
2023-03-05T20:48:56.582Z,7.27
2023-03-05T20:51:28.321Z,6.57
2023-03-05T20:53:59.002Z,6.60
2023-03-05T20:56:28.039Z,5.17
2023-03-05T20:58:59.567Z,5.80
2023-03-05T21:01:28.114Z,5.70
2023-03-05T21:03:57.344Z,5.03
2023-03-05T21:06:25.303Z,5.57
2023-03-05T21:08:52.589Z,5.87
2023-03-05T21:11:19.983Z,5.50
2023-03-05T21:13:47.388Z,5.17
2023-03-05T21:16:18.852Z,5.73
2023-03-05T21:18:46.116Z,5.13
2023-03-05T21:21:13.013Z,4.97
2023-03-05T21:23:40.042Z,4.90
2023-03-05T21:26:07.308Z,5.67
2023-03-05T21:28:34.534Z,5.57
2023-03-05T21:31:07.978Z,5.03
2023-03-05T21:33:35.917Z,5.70
2023-03-05T21:36:02.807Z,5.40
2023-03-05T21:38:30.939Z,4.70
2023-03-05T21:40:58.932Z,5.20
2023-03-05T21:43:26.965Z,5.60
2023-03-05T21:45:54.962Z,5.00
2023-03-05T21:48:22.428Z,4.63
2023-03-05T21:50:49.546Z,4.60
2023-03-05T21:53:17.644Z,4.00
2023-03-05T21:56:03.238Z,4.10
2023-03-05T21:58:32.358Z,4.00
2023-03-05T22:00:59.539Z,4.00
2023-03-05T22:03:27.411Z,3.60
2023-03-05T22:05:54.829Z,3.73
2023-03-05T22:08:23.062Z,3.30
2023-03-05T22:10:50.516Z,3.50
2023-03-05T22:13:18.075Z,3.30
2023-03-05T22:15:54.247Z,3.67
2023-03-05T22:18:24.114Z,3.00
2023-03-05T22:20:51.356Z,3.10
2023-03-05T22:23:22.111Z,3.27
2023-03-05T22:26:06.549Z,4.10
2023-03-05T22:28:35.298Z,4.13
2023-03-05T22:31:02.568Z,4.97
2023-03-05T22:33:29.965Z,5.37
2023-03-05T22:35:56.825Z,5.83
2023-03-05T22:38:24.435Z,5.93
2023-03-05T22:40:52.109Z,6.67
2023-03-05T22:43:20.787Z,6.70
2023-03-05T22:45:47.724Z,7.27
2023-03-05T22:48:15.200Z,7.33
2023-03-05T22:50:44.031Z,5.87
2023-03-05T22:53:12.374Z,5.23
2023-03-05T22:55:41.026Z,6.03
2023-03-05T22:58:07.987Z,5.50
2023-03-05T23:00:34.913Z,4.87
2023-03-05T23:03:02.014Z,5.10
2023-03-05T23:05:28.937Z,5.20
2023-03-05T23:07:55.768Z,4.20
2023-03-05T23:10:27.227Z,4.53
2023-03-05T23:12:56.119Z,5.03
2023-03-05T23:15:35.264Z,4.40
2023-03-05T23:18:03.329Z,5.33
2023-03-05T23:20:33.469Z,5.30
2023-03-05T23:23:00.690Z,5.10
2023-03-05T23:25:30.514Z,4.63
2023-03-05T23:27:58.177Z,4.20
2023-03-05T23:30:26.223Z,4.60
2023-03-05T23:32:58.286Z,5.47
2023-03-05T23:35:28.494Z,5.47
2023-03-05T23:37:57.902Z,5.60
2023-03-05T23:40:30.692Z,5.60
2023-03-05T23:42:57.768Z,6.23
2023-03-05T23:45:25.162Z,5.33
2023-03-05T23:47:53.047Z,5.53
2023-03-05T23:50:32.054Z,4.80
2023-03-05T23:53:01.724Z,4.50
2023-03-05T23:55:36.164Z,4.23
2023-03-05T23:58:03.556Z,3.57
